Time;durP1;ratioP1;P1;durP2;ratioP2;P2;SDS_P1;SDS_P2;PMS_P1;PMS_P2;Temp;Humidity;BMP_temperature;BMP_pressure;BME280_temperature;BME280_humidity;BME280_pressure;Samples;Min_cycle;Max_cycle;Signal;HPM_P1;HPM_P2
2021/12/04 00:00:53;;;;;;;6.47;3.95;;;;;;;;;;4992932;28;20089;-64
2021/12/04 00:03:18;;;;;;;7.35;4.70;;;;;;;;;;4990711;28;20042;-63
2021/12/04 00:05:51;;;;;;;6.53;4.10;;;;;;;;;;4991866;28;20474;-63
2021/12/04 00:08:17;;;;;;;6.85;4.43;;;;;;;;;;4990059;28;20061;-63
2021/12/04 00:10:42;;;;;;;6.93;4.53;;;;;;;;;;4991378;28;20080;-63
2021/12/04 00:13:08;;;;;;;8.70;4.80;;;;;;;;;;4991470;28;20435;-63
2021/12/04 00:15:33;;;;;;;6.25;3.80;;;;;;;;;;4972527;28;20096;-64
2021/12/04 00:18:00;;;;;;;7.15;3.95;;;;;;;;;;4990431;28;20427;-63
2021/12/04 00:20:30;;;;;;;6.65;4.30;;;;;;;;;;4990585;28;20049;-65
2021/12/04 00:22:58;;;;;;;7.55;4.32;;;;;;;;;;4991759;28;20091;-63
2021/12/04 00:25:25;;;;;;;7.53;3.83;;;;;;;;;;4986669;28;20030;-65
2021/12/04 00:27:50;;;;;;;7.20;4.03;;;;;;;;;;4990748;28;20030;-63
2021/12/04 00:30:16;;;;;;;6.40;4.45;;;;;;;;;;4989681;28;20069;-63
2021/12/04 00:32:46;;;;;;;6.50;4.20;;;;;;;;;;4988567;28;20655;-63
2021/12/04 00:35:20;;;;;;;6.80;4.45;;;;;;;;;;4989760;28;20052;-65
2021/12/04 00:49:08;;;;;;;8.10;4.57;;;;;;;;;;4990761;28;20117;-65
2021/12/04 00:51:12;;;;;;;7.30;4.15;;;;;;;;;;4979835;28;20472;-63
2021/12/04 00:53:37;;;;;;;6.75;4.45;;;;;;;;;;4989913;28;20464;-65
2021/12/04 00:56:03;;;;;;;7.10;4.38;;;;;;;;;;4973122;28;20037;-63
2021/12/04 00:58:29;;;;;;;7.85;4.90;;;;;;;;;;4991612;28;20088;-63
2021/12/04 01:00:54;;;;;;;6.60;4.45;;;;;;;;;;4989624;28;20484;-63
2021/12/04 01:03:19;;;;;;;7.32;4.47;;;;;;;;;;4973973;28;20448;-63
2021/12/04 01:05:45;;;;;;;6.70;4.40;;;;;;;;;;4990011;28;20302;-63
2021/12/04 01:08:10;;;;;;;8.63;4.70;;;;;;;;;;4990383;28;20034;-63
2021/12/04 01:10:36;;;;;;;7.82;4.35;;;;;;;;;;4989282;28;20412;-63
2021/12/04 01:13:06;;;;;;;8.15;4.72;;;;;;;;;;4990193;28;20030;-63
2021/12/04 01:15:31;;;;;;;7.90;4.85;;;;;;;;;;4990361;28;20088;-63
2021/12/04 01:17:57;;;;;;;9.90;5.10;;;;;;;;;;4989385;28;20038;-63
2021/12/04 01:20:22;;;;;;;7.38;4.55;;;;;;;;;;4971147;28;20117;-64
2021/12/04 01:22:47;;;;;;;7.25;4.55;;;;;;;;;;4990025;28;20451;-63
2021/12/04 01:25:13;;;;;;;7.25;4.82;;;;;;;;;;4990045;28;20038;-63
2021/12/04 01:27:39;;;;;;;8.48;4.70;;;;;;;;;;4969316;28;20535;-63
2021/12/04 01:30:06;;;;;;;7.25;4.38;;;;;;;;;;4985648;28;20130;-63
2021/12/04 01:32:31;;;;;;;6.72;4.45;;;;;;;;;;4990772;28;20035;-64
2021/12/04 01:34:57;;;;;;;7.10;4.60;;;;;;;;;;4991119;28;20486;-63
2021/12/04 01:37:22;;;;;;;7.40;4.70;;;;;;;;;;4987830;28;20351;-65
2021/12/04 01:39:48;;;;;;;8.80;4.80;;;;;;;;;;4988552;28;20662;-63
2021/12/04 01:42:18;;;;;;;8.32;4.70;;;;;;;;;;4993760;28;20038;-63
2021/12/04 01:44:44;;;;;;;7.90;4.83;;;;;;;;;;4993084;28;20117;-63
2021/12/04 01:47:11;;;;;;;8.35;4.68;;;;;;;;;;4994316;28;20519;-63
2021/12/04 01:49:36;;;;;;;8.38;4.85;;;;;;;;;;4993378;28;20460;-63
2021/12/04 01:52:02;;;;;;;7.65;4.72;;;;;;;;;;4991040;28;20042;-63
2021/12/04 01:54:28;;;;;;;8.73;5.50;;;;;;;;;;4988011;28;20434;-64
2021/12/04 01:56:53;;;;;;;10.57;5.63;;;;;;;;;;4985843;28;20049;-63
2021/12/04 01:59:19;;;;;;;9.77;6.05;;;;;;;;;;4991370;28;20034;-63
2021/12/04 02:01:44;;;;;;;11.48;6.03;;;;;;;;;;4991830;28;20042;-64
2021/12/04 02:04:09;;;;;;;9.20;5.88;;;;;;;;;;4977401;28;20396;-63
2021/12/04 02:06:35;;;;;;;13.15;5.80;;;;;;;;;;4992089;28;20030;-64
2021/12/04 02:09:01;;;;;;;11.10;6.40;;;;;;;;;;4976348;28;20045;-64
2021/12/04 02:11:26;;;;;;;10.68;6.53;;;;;;;;;;4992641;28;20465;-64
2021/12/04 02:13:51;;;;;;;10.43;6.80;;;;;;;;;;4991543;28;20034;-64
2021/12/04 02:16:19;;;;;;;10.43;6.57;;;;;;;;;;4994728;28;20077;-64
2021/12/04 02:18:45;;;;;;;11.82;6.60;;;;;;;;;;4972924;28;20035;-64
2021/12/04 02:21:10;;;;;;;10.27;6.15;;;;;;;;;;4991998;28;20077;-64
2021/12/04 02:23:36;;;;;;;12.68;7.13;;;;;;;;;;4975131;28;20026;-64
2021/12/04 02:26:02;;;;;;;10.10;6.63;;;;;;;;;;4976130;28;20540;-64
2021/12/04 02:28:27;;;;;;;9.75;6.20;;;;;;;;;;4991750;28;20100;-64
2021/12/04 02:30:53;;;;;;;10.52;6.13;;;;;;;;;;4993302;28;20030;-64
2021/12/04 02:33:20;;;;;;;10.35;6.18;;;;;;;;;;4992703;28;20117;-64
2021/12/04 02:35:51;;;;;;;12.00;6.47;;;;;;;;;;4991282;28;20088;-65
2021/12/04 02:38:19;;;;;;;10.82;6.05;;;;;;;;;;4991932;28;20440;-64
2021/12/04 02:40:46;;;;;;;10.07;6.05;;;;;;;;;;4991867;28;20042;-65
2021/12/04 02:43:12;;;;;;;10.90;6.20;;;;;;;;;;4992976;28;20101;-65
2021/12/04 02:45:38;;;;;;;10.30;6.15;;;;;;;;;;4974878;28;20042;-65
2021/12/04 02:48:03;;;;;;;10.48;6.35;;;;;;;;;;4991484;28;20044;-65
2021/12/04 02:50:29;;;;;;;10.85;6.45;;;;;;;;;;4975107;28;20038;-65
2021/12/04 02:52:54;;;;;;;10.27;6.35;;;;;;;;;;4989539;28;20161;-65
2021/12/04 02:55:20;;;;;;;10.20;6.32;;;;;;;;;;4996953;28;20034;-65
2021/12/04 02:57:46;;;;;;;9.82;6.22;;;;;;;;;;4993541;28;20037;-66
2021/12/04 03:00:21;;;;;;;10.02;5.93;;;;;;;;;;4988665;28;20034;-65
2021/12/04 03:02:46;;;;;;;9.20;5.78;;;;;;;;;;4980869;28;20547;-66
2021/12/04 03:05:12;;;;;;;9.27;5.25;;;;;;;;;;4975386;28;20037;-65
2021/12/04 03:07:39;;;;;;;9.10;5.47;;;;;;;;;;4990348;28;20152;-66
2021/12/04 03:10:07;;;;;;;9.77;5.85;;;;;;;;;;4991266;28;20058;-65
2021/12/04 03:12:33;;;;;;;11.70;6.43;;;;;;;;;;4992079;28;20042;-64
2021/12/04 03:14:59;;;;;;;10.55;5.70;;;;;;;;;;4992068;28;20034;-64
2021/12/04 03:17:25;;;;;;;9.98;5.68;;;;;;;;;;4973174;28;20092;-64
2021/12/04 03:19:52;;;;;;;11.77;5.43;;;;;;;;;;4991251;28;20030;-64
2021/12/04 03:22:20;;;;;;;9.02;5.72;;;;;;;;;;4989513;28;20030;-64
2021/12/04 03:24:46;;;;;;;8.40;5.30;;;;;;;;;;4991187;28;20040;-64
2021/12/04 03:27:13;;;;;;;8.90;5.53;;;;;;;;;;4975285;28;20096;-64
2021/12/04 03:29:42;;;;;;;8.70;5.28;;;;;;;;;;4991271;28;20080;-64
2021/12/04 03:32:52;;;;;;;8.93;5.63;;;;;;;;;;4994077;28;20555;-64
2021/12/04 03:43:04;;;;;;;9.80;5.88;;;;;;;;;;4992635;28;20048;-64
2021/12/04 03:45:29;;;;;;;10.10;5.72;;;;;;;;;;4992925;28;20460;-64
2021/12/04 03:48:04;;;;;;;9.80;5.78;;;;;;;;;;4990688;28;20037;-64
2021/12/04 03:50:30;;;;;;;9.05;5.97;;;;;;;;;;4990865;28;20026;-65
2021/12/04 03:52:55;;;;;;;9.48;5.88;;;;;;;;;;4990324;28;20030;-64
2021/12/04 03:55:21;;;;;;;8.45;5.35;;;;;;;;;;4990646;28;20061;-64
2021/12/04 03:57:46;;;;;;;8.75;5.30;;;;;;;;;;4973855;28;20045;-64
2021/12/04 04:00:14;;;;;;;7.95;5.07;;;;;;;;;;4973448;28;20033;-64
2021/12/04 04:02:40;;;;;;;7.80;5.47;;;;;;;;;;4991066;28;20022;-64
2021/12/04 04:05:06;;;;;;;7.63;4.93;;;;;;;;;;4991283;28;20118;-64
2021/12/04 04:07:32;;;;;;;8.48;5.15;;;;;;;;;;4990565;28;20053;-63
2021/12/04 04:09:57;;;;;;;9.13;5.53;;;;;;;;;;4989204;28;20022;-64
2021/12/04 04:12:23;;;;;;;7.50;4.93;;;;;;;;;;4992146;28;20057;-64
2021/12/04 04:14:48;;;;;;;7.78;4.97;;;;;;;;;;4989742;28;20030;-65
2021/12/04 04:17:13;;;;;;;7.15;4.72;;;;;;;;;;4990457;28;20038;-65
2021/12/04 04:19:39;;;;;;;8.20;4.72;;;;;;;;;;4972657;28;20044;-65
2021/12/04 04:22:04;;;;;;;7.60;4.85;;;;;;;;;;4990291;28;20050;-65
2021/12/04 04:24:32;;;;;;;10.20;4.63;;;;;;;;;;4974116;28;20472;-65
2021/12/04 04:26:57;;;;;;;8.80;5.30;;;;;;;;;;4973353;28;20630;-68
2021/12/04 04:29:24;;;;;;;9.55;5.00;;;;;;;;;;4992051;28;20038;-65
2021/12/04 04:31:50;;;;;;;7.00;4.57;;;;;;;;;;4971711;28;20068;-64
2021/12/04 04:34:25;;;;;;;8.52;4.93;;;;;;;;;;4991665;28;20061;-64
2021/12/04 04:59:04;;;;;;;7.00;4.43;;;;;;;;;;4990031;28;20554;-63
2021/12/04 05:12:46;;;;;;;7.00;4.25;;;;;;;;;;4990414;28;20073;-63
2021/12/04 05:15:16;;;;;;;6.95;4.07;;;;;;;;;;4991223;28;20537;-63
2021/12/04 05:20:19;;;;;;;;;;;;;;;;;;4994617;28;20027;-63
2021/12/04 05:22:45;;;;;;;6.25;3.67;;;;;;;;;;4992478;28;19925;-63
2021/12/04 05:25:10;;;;;;;6.93;4.13;;;;;;;;;;4995065;28;20038;-64
2021/12/04 05:27:36;;;;;;;6.30;4.10;;;;;;;;;;4994062;28;20124;-63
2021/12/04 05:30:04;;;;;;;7.10;4.30;;;;;;;;;;4992905;28;20160;-63
2021/12/04 05:32:30;;;;;;;6.80;4.07;;;;;;;;;;4992713;28;20061;-62
2021/12/04 05:34:55;;;;;;;6.53;4.05;;;;;;;;;;4993988;28;20448;-63
2021/12/04 05:37:21;;;;;;;7.18;4.15;;;;;;;;;;4993344;28;20387;-63
2021/12/04 05:39:46;;;;;;;7.70;4.20;;;;;;;;;;4990303;28;20387;-63
2021/12/04 05:42:12;;;;;;;9.25;4.63;;;;;;;;;;4987668;28;20037;-64
2021/12/04 05:44:39;;;;;;;8.48;4.20;;;;;;;;;;4965693;28;20034;-63
2021/12/04 05:47:43;;;;;;;6.82;4.07;;;;;;;;;;4989675;28;20232;-63
2021/12/04 05:55:15;;;;;;;7.80;4.03;;;;;;;;;;4994011;28;20138;-63
2021/12/04 05:57:40;;;;;;;7.25;4.50;;;;;;;;;;4993469;28;20026;-63
2021/12/04 06:00:09;;;;;;;10.32;4.28;;;;;;;;;;4992433;28;20085;-64
2021/12/04 06:02:35;;;;;;;5.93;3.85;;;;;;;;;;4976791;28;20022;-63
2021/12/04 06:05:00;;;;;;;6.47;3.90;;;;;;;;;;4993006;28;20065;-63
2021/12/04 06:07:26;;;;;;;6.93;3.85;;;;;;;;;;4993132;28;20499;-63
2021/12/04 06:09:51;;;;;;;8.02;4.10;;;;;;;;;;4992478;28;20121;-63
2021/12/04 06:12:16;;;;;;;5.93;3.85;;;;;;;;;;4976280;28;20034;-63
2021/12/04 06:14:45;;;;;;;6.97;4.30;;;;;;;;;;4976921;28;20150;-63
2021/12/04 06:17:11;;;;;;;6.72;4.30;;;;;;;;;;4994636;28;20033;-63
2021/12/04 06:22:40;;;;;;;6.80;4.10;;;;;;;;;;4986026;28;20045;-63
2021/12/04 06:25:10;;;;;;;6.85;4.07;;;;;;;;;;4988045;28;20030;-63
2021/12/04 06:27:36;;;;;;;9.07;4.32;;;;;;;;;;4992114;28;20061;-63
2021/12/04 06:30:04;;;;;;;6.95;3.97;;;;;;;;;;4992688;28;20464;-63
2021/12/04 06:32:29;;;;;;;7.65;4.20;;;;;;;;;;4992349;28;20034;-63
2021/12/04 06:34:55;;;;;;;6.55;4.07;;;;;;;;;;4989905;28;20049;-63
2021/12/04 06:37:20;;;;;;;6.10;3.75;;;;;;;;;;4994182;28;20460;-63
2021/12/04 06:39:45;;;;;;;6.38;4.00;;;;;;;;;;4993507;28;20034;-64
2021/12/04 06:42:11;;;;;;;6.90;4.07;;;;;;;;;;4993350;28;20034;-63
2021/12/04 06:44:37;;;;;;;7.05;4.00;;;;;;;;;;4976289;28;20034;-63
2021/12/04 06:47:02;;;;;;;6.05;4.00;;;;;;;;;;4993010;28;20030;-63
2021/12/04 06:49:33;;;;;;;5.50;3.80;;;;;;;;;;4993990;28;20042;-63
2021/12/04 06:52:02;;;;;;;6.78;3.90;;;;;;;;;;4992898;28;20069;-63
2021/12/04 06:54:32;;;;;;;6.15;3.80;;;;;;;;;;4994101;28;20053;-62
2021/12/04 06:56:58;;;;;;;6.30;4.07;;;;;;;;;;4992764;28;20069;-63
2021/12/04 06:59:30;;;;;;;5.90;4.10;;;;;;;;;;4993442;28;20034;-63
2021/12/04 07:01:55;;;;;;;9.52;5.15;;;;;;;;;;4993061;28;20046;-63
2021/12/04 07:04:21;;;;;;;6.85;4.32;;;;;;;;;;4993981;28;20398;-63
2021/12/04 07:06:48;;;;;;;7.07;3.92;;;;;;;;;;4993657;28;20486;-64
2021/12/04 07:09:14;;;;;;;6.65;3.97;;;;;;;;;;4991587;28;20045;-62
2021/12/04 07:11:40;;;;;;;5.95;4.03;;;;;;;;;;4994454;28;20137;-64
2021/12/04 07:14:05;;;;;;;6.47;4.20;;;;;;;;;;4992598;28;20034;-64
2021/12/04 07:16:32;;;;;;;7.55;3.90;;;;;;;;;;4976378;28;20041;-62
2021/12/04 07:18:57;;;;;;;6.88;4.15;;;;;;;;;;4992154;28;20169;-62
2021/12/04 07:21:24;;;;;;;6.30;3.90;;;;;;;;;;4992213;28;20128;-62
2021/12/04 07:23:50;;;;;;;5.90;3.88;;;;;;;;;;4992837;28;20034;-63
2021/12/04 07:26:15;;;;;;;6.97;3.88;;;;;;;;;;4975547;28;20045;-63
2021/12/04 07:28:41;;;;;;;9.38;4.63;;;;;;;;;;4993293;28;20031;-63
2021/12/04 07:31:07;;;;;;;6.28;3.97;;;;;;;;;;4974208;28;20041;-63
2021/12/04 07:33:33;;;;;;;6.07;4.05;;;;;;;;;;4992009;28;20049;-63
2021/12/04 07:35:59;;;;;;;7.22;4.22;;;;;;;;;;4983437;28;20034;-63
2021/12/04 07:38:25;;;;;;;9.32;4.13;;;;;;;;;;4990993;28;20030;-63
2021/12/04 07:40:50;;;;;;;7.60;4.32;;;;;;;;;;4974373;28;20026;-66
2021/12/04 07:43:16;;;;;;;6.60;4.18;;;;;;;;;;4991927;28;20037;-64
2021/12/04 07:45:41;;;;;;;7.25;4.50;;;;;;;;;;4992201;28;20030;-64
2021/12/04 07:48:07;;;;;;;7.25;4.55;;;;;;;;;;4991826;28;20121;-64
2021/12/04 07:50:33;;;;;;;8.15;4.30;;;;;;;;;;4974788;28;20069;-63
2021/12/04 07:52:59;;;;;;;7.38;4.45;;;;;;;;;;4991956;28;20512;-64
2021/12/04 07:55:26;;;;;;;8.65;4.13;;;;;;;;;;4990906;28;20115;-64
2021/12/04 07:57:52;;;;;;;6.65;4.03;;;;;;;;;;4991875;28;20068;-66
2021/12/04 08:00:19;;;;;;;5.97;3.83;;;;;;;;;;4974434;28;20484;-65
2021/12/04 08:02:45;;;;;;;6.95;4.32;;;;;;;;;;4991486;28;20117;-64
2021/12/04 08:05:11;;;;;;;7.90;4.30;;;;;;;;;;4991439;28;20101;-63
2021/12/04 08:07:38;;;;;;;6.57;3.88;;;;;;;;;;4991498;28;20052;-63
2021/12/04 08:10:05;;;;;;;7.30;4.07;;;;;;;;;;4994984;28;20029;-63
2021/12/04 08:12:31;;;;;;;7.68;4.47;;;;;;;;;;4992537;28;20038;-63
2021/12/04 08:14:56;;;;;;;7.05;4.18;;;;;;;;;;4990449;28;20030;-64
2021/12/04 08:17:22;;;;;;;11.07;4.78;;;;;;;;;;4992361;28;20026;-64
2021/12/04 08:19:47;;;;;;;7.43;4.47;;;;;;;;;;4992196;28;20037;-63
2021/12/04 08:22:13;;;;;;;7.32;4.50;;;;;;;;;;4990215;28;20414;-63
2021/12/04 08:24:40;;;;;;;7.35;4.50;;;;;;;;;;4992325;28;20076;-63
2021/12/04 08:27:08;;;;;;;8.27;4.80;;;;;;;;;;4990897;28;20034;-64
2021/12/04 08:29:33;;;;;;;8.80;4.97;;;;;;;;;;4991963;28;20084;-63
2021/12/04 08:31:59;;;;;;;7.50;4.43;;;;;;;;;;4992056;28;20407;-63
2021/12/04 08:34:24;;;;;;;7.75;4.80;;;;;;;;;;4992585;28;20478;-63
2021/12/04 08:36:52;;;;;;;8.93;4.60;;;;;;;;;;4991981;28;20035;-66
2021/12/04 08:39:20;;;;;;;9.65;4.75;;;;;;;;;;4991877;28;20033;-64
2021/12/04 08:41:46;;;;;;;8.43;5.03;;;;;;;;;;4990265;28;20054;-64
2021/12/04 08:44:11;;;;;;;7.90;4.82;;;;;;;;;;4989160;28;20116;-63
2021/12/04 08:46:38;;;;;;;8.73;5.15;;;;;;;;;;4991929;28;20034;-64
2021/12/04 08:49:05;;;;;;;7.78;5.18;;;;;;;;;;4973564;28;20493;-63
2021/12/04 08:51:31;;;;;;;8.90;5.15;;;;;;;;;;4994832;28;20387;-63
2021/12/04 08:53:57;;;;;;;8.57;5.20;;;;;;;;;;4994566;28;20397;-64
2021/12/04 08:56:23;;;;;;;8.85;5.38;;;;;;;;;;5010527;28;20044;-64
2021/12/04 08:58:48;;;;;;;9.70;5.90;;;;;;;;;;4994682;28;20045;-63
2021/12/04 09:01:23;;;;;;;10.75;5.80;;;;;;;;;;4994127;28;20026;-63
2021/12/04 09:03:50;;;;;;;9.38;5.65;;;;;;;;;;4995821;28;20038;-63
2021/12/04 09:06:19;;;;;;;10.60;5.60;;;;;;;;;;4995012;28;20034;-63
2021/12/04 09:08:45;;;;;;;11.85;6.18;;;;;;;;;;4995728;28;20084;-63
2021/12/04 09:11:21;;;;;;;8.48;5.10;;;;;;;;;;4993430;28;20046;-63
2021/12/04 09:13:47;;;;;;;9.85;5.78;;;;;;;;;;4994479;28;20031;-64
2021/12/04 09:16:15;;;;;;;10.30;5.97;;;;;;;;;;4994389;28;20283;-63
2021/12/04 09:18:40;;;;;;;10.48;6.10;;;;;;;;;;4995044;28;20022;-63
2021/12/04 09:21:06;;;;;;;11.70;6.40;;;;;;;;;;4994526;28;20033;-63
2021/12/04 09:23:38;;;;;;;10.93;6.13;;;;;;;;;;4995744;28;20031;-64
2021/12/04 09:26:05;;;;;;;10.00;6.18;;;;;;;;;;4994823;28;20486;-64
2021/12/04 10:23:39;;;;;;;11.25;6.15;;;;;;;;;;4993603;28;20114;-65
2021/12/04 10:35:14;;;;;;;8.32;5.15;;;;;;;;;;4975420;28;20105;-66
2021/12/04 10:37:59;;;;;;;12.35;5.43;;;;;;;;;;4983569;28;20034;-64
2021/12/04 10:40:46;;;;;;;8.38;5.10;;;;;;;;;;4976166;28;20034;-64
2021/12/04 10:43:16;;;;;;;8.77;4.57;;;;;;;;;;4993246;28;20490;-66
2021/12/04 10:45:52;;;;;;;6.90;4.68;;;;;;;;;;4993354;28;20042;-66
2021/12/04 10:48:20;;;;;;;7.97;5.00;;;;;;;;;;4992773;28;20057;-66
2021/12/04 10:50:57;;;;;;;10.35;5.00;;;;;;;;;;4973014;28;20030;-65
2021/12/04 10:53:34;;;;;;;9.18;4.60;;;;;;;;;;4973761;28;20035;-65
2021/12/04 10:59:07;;;;;;;7.95;4.72;;;;;;;;;;4974093;28;20031;-67
2021/12/04 11:05:23;;;;;;;7.25;4.78;;;;;;;;;;4989914;28;20471;-65
2021/12/04 11:40:34;;;;;;;7.82;4.13;;;;;;;;;;4992240;28;20439;-65
2021/12/04 11:43:05;;;;;;;8.30;3.95;;;;;;;;;;4993216;28;20113;-65
2021/12/04 11:45:59;;;;;;;6.65;4.20;;;;;;;;;;4992852;28;20026;-65
2021/12/04 11:48:35;;;;;;;7.10;4.32;;;;;;;;;;4991553;28;20601;-65
2021/12/04 11:51:04;;;;;;;7.78;4.60;;;;;;;;;;4993065;28;20034;-65
2021/12/04 11:53:33;;;;;;;6.53;4.13;;;;;;;;;;4992396;28;20030;-64
2021/12/04 11:55:59;;;;;;;7.03;4.32;;;;;;;;;;4975308;28;20504;-65
2021/12/04 11:58:32;;;;;;;8.80;5.28;;;;;;;;;;4990669;28;20102;-65
2021/12/04 12:01:01;;;;;;;6.63;4.38;;;;;;;;;;4975252;28;20057;-65
2021/12/04 12:03:33;;;;;;;7.22;4.38;;;;;;;;;;4977500;28;20034;-65
2021/12/04 12:06:05;;;;;;;7.38;4.15;;;;;;;;;;4975321;28;20038;-64
2021/12/04 12:08:45;;;;;;;7.30;4.22;;;;;;;;;;4992698;28;20045;-65
2021/12/04 12:11:29;;;;;;;8.77;4.22;;;;;;;;;;4991660;28;20125;-65
2021/12/04 12:14:11;;;;;;;6.43;3.30;;;;;;;;;;4992695;28;20117;-65
2021/12/04 12:16:45;;;;;;;6.95;4.07;;;;;;;;;;4975436;28;20076;-65
2021/12/04 12:19:35;;;;;;;8.35;4.22;;;;;;;;;;4991176;28;20464;-65
2021/12/04 12:22:18;;;;;;;6.43;4.03;;;;;;;;;;4974999;28;20026;-64
2021/12/04 12:24:54;;;;;;;5.53;3.53;;;;;;;;;;4974752;28;20516;-64
2021/12/04 12:38:43;;;;;;;5.60;3.22;;;;;;;;;;4991583;28;20084;-64
2021/12/04 12:41:34;;;;;;;5.28;3.30;;;;;;;;;;4991501;28;20042;-67
2021/12/04 12:44:25;;;;;;;4.82;3.22;;;;;;;;;;4992510;28;20042;-64
2021/12/04 12:46:53;;;;;;;4.80;3.40;;;;;;;;;;4992031;28;20184;-64
2021/12/04 12:49:26;;;;;;;6.30;3.83;;;;;;;;;;4973928;28;20121;-65
2021/12/04 12:52:03;;;;;;;5.60;3.30;;;;;;;;;;4974494;28;20066;-65
2021/12/04 12:54:38;;;;;;;6.45;3.38;;;;;;;;;;4991263;28;20057;-65
2021/12/04 12:57:09;;;;;;;6.03;3.63;;;;;;;;;;4990257;28;20400;-64
2021/12/04 12:59:42;;;;;;;;;;;;;;;;;;4975166;28;20026;-64
2021/12/04 13:13:24;;;;;;;7.18;4.10;;;;;;;;;;4990404;28;20129;-64
2021/12/04 13:15:51;;;;;;;5.68;3.30;;;;;;;;;;4991718;28;20058;-65
2021/12/04 13:18:23;;;;;;;5.72;3.50;;;;;;;;;;4990277;28;20034;-65
2021/12/04 13:20:51;;;;;;;5.05;3.17;;;;;;;;;;4991496;28;20031;-65
2021/12/04 13:23:21;;;;;;;4.97;2.90;;;;;;;;;;4990609;28;20109;-65
2021/12/04 13:26:24;;;;;;;4.27;3.00;;;;;;;;;;4991590;28;20360;-65
2021/12/04 13:28:51;;;;;;;4.65;3.15;;;;;;;;;;4960447;28;20260;-65
2021/12/04 13:31:20;;;;;;;4.05;2.95;;;;;;;;;;4990601;28;20034;-65
2021/12/04 13:33:50;;;;;;;5.18;3.42;;;;;;;;;;4990906;28;20038;-65
2021/12/04 13:36:19;;;;;;;4.53;3.00;;;;;;;;;;4991085;28;20490;-65
2021/12/04 13:38:44;;;;;;;5.20;3.30;;;;;;;;;;4994520;28;20272;-64
2021/12/04 13:41:11;;;;;;;5.22;3.40;;;;;;;;;;4994575;28;20038;-68
2021/12/04 13:43:37;;;;;;;5.65;3.40;;;;;;;;;;4977342;28;20476;-64
2021/12/04 13:46:05;;;;;;;5.28;3.63;;;;;;;;;;4977613;28;20041;-64
2021/12/04 13:48:33;;;;;;;4.30;2.90;;;;;;;;;;4994122;28;20165;-65
2021/12/04 13:50:59;;;;;;;5.65;3.40;;;;;;;;;;4976149;28;20592;-64
2021/12/04 13:53:39;;;;;;;5.70;3.50;;;;;;;;;;4993626;28;20034;-64
2021/12/04 13:56:10;;;;;;;6.63;4.07;;;;;;;;;;4995055;28;20023;-64
2021/12/04 13:58:48;;;;;;;6.70;3.65;;;;;;;;;;4994159;28;20038;-64
2021/12/04 14:01:14;;;;;;;6.93;4.22;;;;;;;;;;4994398;28;20054;-69
2021/12/04 14:03:39;;;;;;;6.57;4.15;;;;;;;;;;4994421;28;20041;-66
2021/12/04 14:06:24;;;;;;;6.95;4.20;;;;;;;;;;4977297;28;20263;-65
2021/12/04 14:08:57;;;;;;;10.77;4.20;;;;;;;;;;4994839;28;20093;-67
2021/12/04 14:11:35;;;;;;;7.78;4.80;;;;;;;;;;4993684;28;20046;-66
2021/12/04 14:14:14;;;;;;;7.72;4.78;;;;;;;;;;4995048;28;20487;-67
2021/12/04 14:16:41;;;;;;;9.95;5.22;;;;;;;;;;4994268;28;20030;-67
2021/12/04 14:19:30;;;;;;;9.38;5.68;;;;;;;;;;4975350;28;20026;-67
2021/12/04 14:22:05;;;;;;;8.70;5.38;;;;;;;;;;4953519;28;20038;-67
2021/12/04 14:24:46;;;;;;;8.82;5.25;;;;;;;;;;4993586;28;20104;-67
2021/12/04 14:27:16;;;;;;;9.07;5.90;;;;;;;;;;4994149;28;20480;-68
2021/12/04 14:29:46;;;;;;;11.35;6.07;;;;;;;;;;4991897;28;20089;-66
2021/12/04 14:32:13;;;;;;;10.10;5.95;;;;;;;;;;4996149;28;20157;-68
2021/12/04 14:34:39;;;;;;;9.15;6.07;;;;;;;;;;4993692;28;20105;-67
2021/12/04 14:37:05;;;;;;;10.98;6.20;;;;;;;;;;4976995;28;20026;-67
2021/12/04 14:39:31;;;;;;;9.18;6.05;;;;;;;;;;4993483;28;20034;-67
2021/12/04 14:41:57;;;;;;;9.00;5.75;;;;;;;;;;4993992;28;20030;-67
2021/12/04 14:44:22;;;;;;;11.25;6.63;;;;;;;;;;4993472;28;20041;-68
2021/12/04 14:46:48;;;;;;;9.63;6.25;;;;;;;;;;4994186;28;20038;-68
2021/12/04 14:49:14;;;;;;;10.77;6.60;;;;;;;;;;4993016;28;20086;-69
2021/12/04 14:51:40;;;;;;;10.88;6.82;;;;;;;;;;4976241;28;20035;-69
2021/12/04 14:54:06;;;;;;;11.82;6.72;;;;;;;;;;4994110;28;20026;-69
2021/12/04 14:56:32;;;;;;;11.15;7.10;;;;;;;;;;4992981;28;20048;-69
2021/12/04 14:58:58;;;;;;;19.35;11.90;;;;;;;;;;4994044;28;20030;-68
2021/12/04 15:01:29;;;;;;;14.35;8.75;;;;;;;;;;4993022;28;20026;-69
2021/12/04 15:04:00;;;;;;;;;;;;;;;;;;4993439;28;20061;-69
2021/12/04 15:06:29;;;;;;;12.02;6.85;;;;;;;;;;4993347;28;19917;-69
2021/12/04 15:09:00;;;;;;;14.13;7.90;;;;;;;;;;4994209;28;20042;-68
2021/12/04 15:11:34;;;;;;;13.00;8.00;;;;;;;;;;4993016;28;20060;-67
2021/12/04 15:14:11;;;;;;;14.35;8.25;;;;;;;;;;4993880;28;20038;-67
2021/12/04 15:16:51;;;;;;;13.90;8.27;;;;;;;;;;4991656;28;20027;-66
2021/12/04 15:19:27;;;;;;;18.77;8.55;;;;;;;;;;4992567;28;20026;-69
2021/12/04 15:21:57;;;;;;;16.88;8.10;;;;;;;;;;4993740;28;20049;-66
2021/12/04 15:24:26;;;;;;;16.52;8.98;;;;;;;;;;4992961;28;20402;-68
2021/12/04 15:26:57;;;;;;;16.75;9.40;;;;;;;;;;4993540;28;20022;-67
2021/12/04 15:29:27;;;;;;;16.20;9.45;;;;;;;;;;4992784;28;20042;-68
2021/12/04 15:31:54;;;;;;;16.75;9.00;;;;;;;;;;4993453;28;20037;-67
2021/12/04 15:34:40;;;;;;;15.63;9.18;;;;;;;;;;4975079;28;20356;-68
2021/12/04 15:37:06;;;;;;;16.88;8.63;;;;;;;;;;4991703;28;20030;-68
2021/12/04 15:39:37;;;;;;;16.52;8.77;;;;;;;;;;4992317;28;20033;-68
2021/12/04 15:42:17;;;;;;;13.80;7.47;;;;;;;;;;4990591;28;20037;-68
2021/12/04 15:50:31;;;;;;;12.13;6.82;;;;;;;;;;4993754;28;20081;-67
2021/12/04 15:53:02;;;;;;;13.82;7.30;;;;;;;;;;4959501;28;20034;-67
2021/12/04 15:55:37;;;;;;;15.18;7.75;;;;;;;;;;4991330;28;20030;-67
2021/12/04 15:58:06;;;;;;;15.50;8.77;;;;;;;;;;4992067;28;20122;-68
2021/12/04 16:00:34;;;;;;;16.05;8.68;;;;;;;;;;4990334;28;20037;-67
2021/12/04 16:03:04;;;;;;;17.85;8.65;;;;;;;;;;4991566;28;20039;-66
2021/12/04 16:05:32;;;;;;;15.80;8.18;;;;;;;;;;4971172;28;20367;-67
2021/12/04 16:08:07;;;;;;;15.48;9.45;;;;;;;;;;4992806;28;20042;-67
2021/12/04 16:10:37;;;;;;;15.65;9.05;;;;;;;;;;4992113;28;20057;-67
2021/12/04 16:13:05;;;;;;;14.20;8.67;;;;;;;;;;4993406;28;20034;-67
2021/12/04 16:15:31;;;;;;;18.15;9.75;;;;;;;;;;4992378;28;20141;-67
2021/12/04 16:17:56;;;;;;;15.98;9.60;;;;;;;;;;4992361;28;20073;-67
2021/12/04 16:20:24;;;;;;;18.27;10.20;;;;;;;;;;4972174;28;20073;-68
2021/12/04 16:22:53;;;;;;;17.38;9.50;;;;;;;;;;4973049;28;20030;-68
2021/12/04 16:25:37;;;;;;;16.30;8.68;;;;;;;;;;4973256;28;20023;-69
2021/12/04 16:30:58;;;;;;;14.35;8.20;;;;;;;;;;4987946;28;20408;-68
2021/12/04 16:36:03;;;;;;;14.73;8.23;;;;;;;;;;4991067;28;20034;-67
2021/12/04 16:38:30;;;;;;;13.68;7.68;;;;;;;;;;4990595;28;20033;-68
2021/12/04 16:40:56;;;;;;;14.73;7.25;;;;;;;;;;4990665;28;20034;-69
2021/12/04 16:43:35;;;;;;;14.07;7.93;;;;;;;;;;4972679;28;20448;-69
2021/12/04 16:46:28;;;;;;;15.18;7.38;;;;;;;;;;4973032;28;20504;-68
2021/12/04 16:48:57;;;;;;;15.77;7.38;;;;;;;;;;4975485;28;20049;-74
2021/12/04 16:59:29;;;;;;;13.82;7.10;;;;;;;;;;4990737;28;20125;-70
2021/12/04 17:01:59;;;;;;;12.30;6.30;;;;;;;;;;4991123;28;20160;-70
2021/12/04 17:04:25;;;;;;;19.02;7.80;;;;;;;;;;4990750;28;20055;-69
2021/12/04 17:06:53;;;;;;;16.15;8.30;;;;;;;;;;4991414;28;20113;-69
2021/12/04 17:09:19;;;;;;;15.63;8.02;;;;;;;;;;4991907;28;20031;-69
2021/12/04 17:11:48;;;;;;;15.15;8.35;;;;;;;;;;4991550;28;20149;-68
2021/12/04 17:14:14;;;;;;;15.45;8.25;;;;;;;;;;4994995;28;20045;-69
2021/12/04 17:16:40;;;;;;;18.20;9.13;;;;;;;;;;4994376;28;20388;-69
2021/12/04 17:19:09;;;;;;;19.27;9.55;;;;;;;;;;4993899;28;20050;-70
2021/12/04 17:21:40;;;;;;;19.10;8.88;;;;;;;;;;4994571;28;20030;-69
2021/12/04 17:24:08;;;;;;;;;;;;;;;;;;4995772;28;20105;-70
2021/12/04 17:26:34;;;;;;;18.65;8.80;;;;;;;;;;4992007;28;20014;-70
2021/12/04 17:29:00;;;;;;;19.38;9.95;;;;;;;;;;4994940;28;20089;-69
2021/12/04 17:31:26;;;;;;;23.10;10.77;;;;;;;;;;4993548;28;20030;-69
2021/12/04 17:33:56;;;;;;;21.00;10.65;;;;;;;;;;4994479;28;20464;-68
2021/12/04 17:36:24;;;;;;;24.60;11.57;;;;;;;;;;4995272;28;20076;-69
2021/12/04 17:38:50;;;;;;;21.95;11.43;;;;;;;;;;4994531;28;20038;-69
2021/12/04 17:41:19;;;;;;;26.67;12.95;;;;;;;;;;4994604;28;20499;-69
2021/12/04 17:43:46;;;;;;;26.90;13.93;;;;;;;;;;4993560;28;20627;-70
2021/12/04 17:46:12;;;;;;;28.40;13.82;;;;;;;;;;4994975;28;20066;-70
2021/12/04 17:48:39;;;;;;;28.02;13.60;;;;;;;;;;4994611;28;20026;-70
2021/12/04 17:51:05;;;;;;;27.58;14.50;;;;;;;;;;4994734;28;20030;-69
2021/12/04 17:53:32;;;;;;;27.17;13.57;;;;;;;;;;4993655;28;20038;-69
2021/12/04 17:55:58;;;;;;;25.92;13.60;;;;;;;;;;4993276;28;20491;-69
2021/12/04 17:58:25;;;;;;;26.15;14.55;;;;;;;;;;5004049;28;20113;-68
2021/12/04 18:00:55;;;;;;;24.80;13.27;;;;;;;;;;4994140;28;20460;-69
2021/12/04 18:03:22;;;;;;;22.75;11.55;;;;;;;;;;4992896;28;20511;-70
2021/12/04 18:05:51;;;;;;;25.00;13.55;;;;;;;;;;4993610;28;20488;-69
2021/12/04 18:08:17;;;;;;;22.92;13.02;;;;;;;;;;4994989;28;20038;-69
2021/12/04 18:10:46;;;;;;;22.25;11.75;;;;;;;;;;4993040;28;20042;-70
2021/12/04 18:13:14;;;;;;;21.00;11.50;;;;;;;;;;4995017;28;20553;-70
2021/12/04 18:15:44;;;;;;;18.38;9.68;;;;;;;;;;4993632;28;20033;-69